Terminal Aerodrome Forecast
Issued by NWS Norman, OK

Home | Current Version | Previous Version | Text Only | Print | Product List | Glossary On
Versions: 1 2 3 4 5 6 7 8 9 10 11 12 13 14 15 16 17 18 19 20 21 22 23 24 25 26 27 28
000
FTUS44 KOUN 301142
TAFOKC
TAF
KOKC 301142Z 3012/3112 16009KT P6SM -RA SCT030 OVC100
     FM301500 15010KT P6SM RA OVC025
      TEMPO 3015/3019 4SM -TSRA BKN020CB
     FM301900 07012KT P6SM SCT025 OVC040
      TEMPO 3022/3102 4SM -TSRA BKN015CB
     FM310200 05010KT 5SM -RA OVC015
      TEMPO 3102/3106 3SM RA OVC010
     FM310600 04007KT P6SM OVC007 PROB30 3106/3112 P6SM -RA OVC007=

USA.gov is the U.S. government's official web portal to all federal, state and local government web resources and services.